sensor_id;sensor_type;location;lat;lon;timestamp;pressure;altitude;pressure_sealevel;temperature
40968;BMP280;57377;45.130;6.038;2022-08-25T00:00:20;92751.34;;;22.18
40968;BMP280;57377;45.130;6.038;2022-08-25T00:02:46;92744.09;;;22.34
40968;BMP280;57377;45.130;6.038;2022-08-25T00:05:12;92756.94;;;21.94
40968;BMP280;57377;45.130;6.038;2022-08-25T00:07:37;92758.38;;;21.73
40968;BMP280;57377;45.130;6.038;2022-08-25T00:10:06;92760.06;;;22.00
40968;BMP280;57377;45.130;6.038;2022-08-25T00:12:33;92754.91;;;22.07
40968;BMP280;57377;45.130;6.038;2022-08-25T00:14:58;92759.81;;;22.23
40968;BMP280;57377;45.130;6.038;2022-08-25T00:17:35;92753.50;;;22.31
40968;BMP280;57377;45.130;6.038;2022-08-25T00:20:11;92754.28;;;22.13
40968;BMP280;57377;45.130;6.038;2022-08-25T00:22:37;92764.69;;;22.21
40968;BMP280;57377;45.130;6.038;2022-08-25T00:25:03;92764.03;;;21.72
40968;BMP280;57377;45.130;6.038;2022-08-25T00:27:32;92762.50;;;21.71
40968;BMP280;57377;45.130;6.038;2022-08-25T00:30:17;92766.31;;;21.55
40968;BMP280;57377;45.130;6.038;2022-08-25T00:32:44;92766.19;;;21.66
40968;BMP280;57377;45.130;6.038;2022-08-25T00:35:13;92749.31;;;21.74
40968;BMP280;57377;45.130;6.038;2022-08-25T00:37:39;92748.16;;;21.90
40968;BMP280;57377;45.130;6.038;2022-08-25T00:40:05;92739.84;;;21.92
40968;BMP280;57377;45.130;6.038;2022-08-25T00:42:32;92738.41;;;21.94
40968;BMP280;57377;45.130;6.038;2022-08-25T00:44:58;92734.63;;;21.77
40968;BMP280;57377;45.130;6.038;2022-08-25T00:47:24;92740.19;;;21.72
40968;BMP280;57377;45.130;6.038;2022-08-25T00:49:58;92740.38;;;21.82
40968;BMP280;57377;45.130;6.038;2022-08-25T00:52:40;92747.09;;;21.76
40968;BMP280;57377;45.130;6.038;2022-08-25T00:55:16;92745.91;;;21.74
40968;BMP280;57377;45.130;6.038;2022-08-25T00:57:51;92750.16;;;21.78
40968;BMP280;57377;45.130;6.038;2022-08-25T01:00:22;92752.91;;;21.48
40968;BMP280;57377;45.130;6.038;2022-08-25T01:02:51;92749.81;;;21.61
40968;BMP280;57377;45.130;6.038;2022-08-25T01:05:22;92743.88;;;21.86
40968;BMP280;57377;45.130;6.038;2022-08-25T01:07:48;92736.38;;;21.88
40968;BMP280;57377;45.130;6.038;2022-08-25T01:10:15;92734.81;;;21.87
40968;BMP280;57377;45.130;6.038;2022-08-25T01:12:41;92725.28;;;21.83
40968;BMP280;57377;45.130;6.038;2022-08-25T01:15:28;92720.31;;;21.62
40968;BMP280;57377;45.130;6.038;2022-08-25T01:17:56;92724.44;;;21.60
40968;BMP280;57377;45.130;6.038;2022-08-25T01:20:26;92725.63;;;21.62
40968;BMP280;57377;45.130;6.038;2022-08-25T01:22:53;92727.94;;;21.83
40968;BMP280;57377;45.130;6.038;2022-08-25T01:25:29;92735.41;;;22.15
40968;BMP280;57377;45.130;6.038;2022-08-25T01:27:56;92732.47;;;21.63
40968;BMP280;57377;45.130;6.038;2022-08-25T01:30:25;92740.28;;;21.75
40968;BMP280;57377;45.130;6.038;2022-08-25T01:32:51;92742.22;;;21.78
40968;BMP280;57377;45.130;6.038;2022-08-25T01:35:16;92737.81;;;21.67
40968;BMP280;57377;45.130;6.038;2022-08-25T01:37:42;92746.81;;;21.62
40968;BMP280;57377;45.130;6.038;2022-08-25T01:40:08;92750.22;;;21.63
40968;BMP280;57377;45.130;6.038;2022-08-25T01:42:57;92756.28;;;21.45
40968;BMP280;57377;45.130;6.038;2022-08-25T01:45:24;92750.53;;;21.43
40968;BMP280;57377;45.130;6.038;2022-08-25T01:47:50;92746.19;;;21.69
40968;BMP280;57377;45.130;6.038;2022-08-25T01:50:16;92743.34;;;21.58
40968;BMP280;57377;45.130;6.038;2022-08-25T01:52:58;92735.38;;;21.77
40968;BMP280;57377;45.130;6.038;2022-08-25T01:55:29;92749.44;;;21.62
40968;BMP280;57377;45.130;6.038;2022-08-25T01:58:20;92748.50;;;20.87
40968;BMP280;57377;45.130;6.038;2022-08-25T02:00:59;92751.81;;;20.84
40968;BMP280;57377;45.130;6.038;2022-08-25T02:03:26;92748.72;;;20.97
40968;BMP280;57377;45.130;6.038;2022-08-25T02:05:56;92746.09;;;20.97
40968;BMP280;57377;45.130;6.038;2022-08-25T02:08:22;92742.91;;;21.07
40968;BMP280;57377;45.130;6.038;2022-08-25T02:10:52;92743.22;;;21.21
40968;BMP280;57377;45.130;6.038;2022-08-25T02:13:27;92741.13;;;21.11
40968;BMP280;57377;45.130;6.038;2022-08-25T02:15:57;92736.09;;;20.91
40968;BMP280;57377;45.130;6.038;2022-08-25T02:18:29;92737.47;;;21.00
40968;BMP280;57377;45.130;6.038;2022-08-25T02:20:54;92723.66;;;20.91
40968;BMP280;57377;45.130;6.038;2022-08-25T02:23:20;92735.34;;;21.06
40968;BMP280;57377;45.130;6.038;2022-08-25T02:25:46;92731.63;;;21.10
40968;BMP280;57377;45.130;6.038;2022-08-25T02:28:14;92743.16;;;21.18
40968;BMP280;57377;45.130;6.038;2022-08-25T02:30:44;92738.91;;;21.32
40968;BMP280;57377;45.130;6.038;2022-08-25T02:33:12;92735.63;;;21.35
40968;BMP280;57377;45.130;6.038;2022-08-25T02:35:38;92738.50;;;20.81
40968;BMP280;57377;45.130;6.038;2022-08-25T02:38:04;92732.41;;;21.11
40968;BMP280;57377;45.130;6.038;2022-08-25T02:40:30;92732.25;;;20.89
40968;BMP280;57377;45.130;6.038;2022-08-25T02:42:55;92730.09;;;21.09
40968;BMP280;57377;45.130;6.038;2022-08-25T02:45:22;92729.41;;;21.12
40968;BMP280;57377;45.130;6.038;2022-08-25T02:47:48;92733.38;;;20.57
40968;BMP280;57377;45.130;6.038;2022-08-25T02:50:14;92726.13;;;20.39
40968;BMP280;57377;45.130;6.038;2022-08-25T02:52:42;92716.66;;;20.84
40968;BMP280;57377;45.130;6.038;2022-08-25T02:55:11;92724.84;;;20.94
40968;BMP280;57377;45.130;6.038;2022-08-25T02:57:40;92708.78;;;21.02
40968;BMP280;57377;45.130;6.038;2022-08-25T03:00:09;92720.50;;;21.01
40968;BMP280;57377;45.130;6.038;2022-08-25T03:02:35;92723.97;;;21.05
40968;BMP280;57377;45.130;6.038;2022-08-25T03:05:02;92714.44;;;20.86
40968;BMP280;57377;45.130;6.038;2022-08-25T03:07:28;92714.72;;;20.65
40968;BMP280;57377;45.130;6.038;2022-08-25T03:09:54;92708.59;;;20.77
40968;BMP280;57377;45.130;6.038;2022-08-25T03:12:19;92702.50;;;20.91
40968;BMP280;57377;45.130;6.038;2022-08-25T03:14:46;92704.72;;;20.90
40968;BMP280;57377;45.130;6.038;2022-08-25T03:17:15;92706.75;;;20.96
40968;BMP280;57377;45.130;6.038;2022-08-25T03:19:43;92707.25;;;21.01
40968;BMP280;57377;45.130;6.038;2022-08-25T03:22:08;92702.34;;;20.54
40968;BMP280;57377;45.130;6.038;2022-08-25T03:24:34;92698.00;;;20.77
40968;BMP280;57377;45.130;6.038;2022-08-25T03:27:00;92688.41;;;20.88
40968;BMP280;57377;45.130;6.038;2022-08-25T03:29:30;92695.59;;;20.72
40968;BMP280;57377;45.130;6.038;2022-08-25T03:31:59;92693.81;;;20.76
40968;BMP280;57377;45.130;6.038;2022-08-25T03:34:28;92683.94;;;20.73
40968;BMP280;57377;45.130;6.038;2022-08-25T03:37:00;92687.53;;;20.65
40968;BMP280;57377;45.130;6.038;2022-08-25T03:39:28;92681.53;;;20.68
40968;BMP280;57377;45.130;6.038;2022-08-25T03:41:53;92692.19;;;20.71
40968;BMP280;57377;45.130;6.038;2022-08-25T03:44:39;92692.00;;;20.49
40968;BMP280;57377;45.130;6.038;2022-08-25T03:47:08;92683.19;;;20.91
40968;BMP280;57377;45.130;6.038;2022-08-25T03:49:35;92673.53;;;20.80
40968;BMP280;57377;45.130;6.038;2022-08-25T03:52:01;92674.59;;;20.79
40968;BMP280;57377;45.130;6.038;2022-08-25T03:54:27;92682.53;;;20.79
40968;BMP280;57377;45.130;6.038;2022-08-25T03:56:53;92672.81;;;20.83
40968;BMP280;57377;45.130;6.038;2022-08-25T03:59:22;92672.13;;;20.86
40968;BMP280;57377;45.130;6.038;2022-08-25T04:01:48;92670.75;;;20.91
40968;BMP280;57377;45.130;6.038;2022-08-25T04:04:15;92682.47;;;21.09
40968;BMP280;57377;45.130;6.038;2022-08-25T04:06:43;92681.34;;;20.91
40968;BMP280;57377;45.130;6.038;2022-08-25T04:09:10;92686.63;;;20.91
40968;BMP280;57377;45.130;6.038;2022-08-25T04:11:36;92690.22;;;20.84
40968;BMP280;57377;45.130;6.038;2022-08-25T04:14:07;92695.59;;;20.87
40968;BMP280;57377;45.130;6.038;2022-08-25T04:16:34;92700.81;;;20.53
40968;BMP280;57377;45.130;6.038;2022-08-25T04:19:12;92709.09;;;20.82
40968;BMP280;57377;45.130;6.038;2022-08-25T04:22:20;92706.72;;;21.11
40968;BMP280;57377;45.130;6.038;2022-08-25T04:25:24;92698.19;;;21.02
40968;BMP280;57377;45.130;6.038;2022-08-25T04:28:51;92703.72;;;20.48
40968;BMP280;57377;45.130;6.038;2022-08-25T04:32:18;92698.38;;;20.60
40968;BMP280;57377;45.130;6.038;2022-08-25T04:35:12;92698.66;;;20.74
40968;BMP280;57377;45.130;6.038;2022-08-25T04:38:20;92696.19;;;20.50
40968;BMP280;57377;45.130;6.038;2022-08-25T04:41:19;92697.31;;;20.64
40968;BMP280;57377;45.130;6.038;2022-08-25T04:47:20;92707.06;;;20.60
40968;BMP280;57377;45.130;6.038;2022-08-25T04:50:09;92695.28;;;20.73
40968;BMP280;57377;45.130;6.038;2022-08-25T04:52:52;92700.94;;;20.90
40968;BMP280;57377;45.130;6.038;2022-08-25T04:55:56;92710.00;;;20.90
40968;BMP280;57377;45.130;6.038;2022-08-25T05:02:14;92704.63;;;20.56
40968;BMP280;57377;45.130;6.038;2022-08-25T05:04:54;92701.13;;;20.21
40968;BMP280;57377;45.130;6.038;2022-08-25T05:07:22;92705.16;;;20.46
40968;BMP280;57377;45.130;6.038;2022-08-25T05:10:03;92702.94;;;20.32
40968;BMP280;57377;45.130;6.038;2022-08-25T05:16:23;92705.41;;;20.56
40968;BMP280;57377;45.130;6.038;2022-08-25T05:19:15;92702.84;;;20.44
40968;BMP280;57377;45.130;6.038;2022-08-25T05:31:36;92702.84;;;20.44
40968;BMP280;57377;45.130;6.038;2022-08-25T05:34:24;92707.78;;;20.30
40968;BMP280;57377;45.130;6.038;2022-08-25T05:37:03;92715.44;;;20.35
40968;BMP280;57377;45.130;6.038;2022-08-25T05:39:45;92716.50;;;20.46
40968;BMP280;57377;45.130;6.038;2022-08-25T05:42:46;92705.50;;;20.29
40968;BMP280;57377;45.130;6.038;2022-08-25T05:45:55;92707.44;;;20.47
40968;BMP280;57377;45.130;6.038;2022-08-25T05:51:49;92709.00;;;20.79
40968;BMP280;57377;45.130;6.038;2022-08-25T05:57:40;92714.44;;;20.86
40968;BMP280;57377;45.130;6.038;2022-08-25T06:00:48;92703.75;;;20.97
40968;BMP280;57377;45.130;6.038;2022-08-25T06:06:50;92706.34;;;20.79
40968;BMP280;57377;45.130;6.038;2022-08-25T06:09:34;92700.13;;;20.87
40968;BMP280;57377;45.130;6.038;2022-08-25T06:12:15;92707.72;;;20.73
40968;BMP280;57377;45.130;6.038;2022-08-25T06:14:49;92702.41;;;20.88
40968;BMP280;57377;45.130;6.038;2022-08-25T06:17:47;92705.75;;;20.85
40968;BMP280;57377;45.130;6.038;2022-08-25T06:20:34;92711.38;;;20.84
40968;BMP280;57377;45.130;6.038;2022-08-25T06:23:19;92701.31;;;20.74
40968;BMP280;57377;45.130;6.038;2022-08-25T06:33:02;92714.09;;;20.87
40968;BMP280;57377;45.130;6.038;2022-08-25T06:35:32;92718.38;;;20.91
40968;BMP280;57377;45.130;6.038;2022-08-25T06:40:53;92713.09;;;20.91
40968;BMP280;57377;45.130;6.038;2022-08-25T06:43:28;92721.41;;;21.09
40968;BMP280;57377;45.130;6.038;2022-08-25T06:46:23;92733.38;;;20.57
40968;BMP280;57377;45.130;6.038;2022-08-25T06:48:57;92738.44;;;20.77
40968;BMP280;57377;45.130;6.038;2022-08-25T06:51:34;92737.16;;;20.87
40968;BMP280;57377;45.130;6.038;2022-08-25T06:54:34;92749.84;;;21.46
40968;BMP280;57377;45.130;6.038;2022-08-25T07:11:15;92713.06;;;23.04
40968;BMP280;57377;45.130;6.038;2022-08-25T07:17:49;92714.72;;;23.67
40968;BMP280;57377;45.130;6.038;2022-08-25T07:27:38;92701.19;;;24.08
40968;BMP280;57377;45.130;6.038;2022-08-25T07:33:31;92690.78;;;25.74
40968;BMP280;57377;45.130;6.038;2022-08-25T07:46:41;92661.41;;;28.86
40968;BMP280;57377;45.130;6.038;2022-08-25T07:49:47;92671.72;;;28.88
40968;BMP280;57377;45.130;6.038;2022-08-25T07:54:44;92664.94;;;28.06
40968;BMP280;57377;45.130;6.038;2022-08-25T07:57:42;92670.50;;;27.19
40968;BMP280;57377;45.130;6.038;2022-08-25T08:04:07;92676.44;;;26.09
40968;BMP280;57377;45.130;6.038;2022-08-25T08:07:10;92671.28;;;26.92
40968;BMP280;57377;45.130;6.038;2022-08-25T08:13:22;92667.41;;;26.55
40968;BMP280;57377;45.130;6.038;2022-08-25T08:20:07;92676.66;;;25.63
40968;BMP280;57377;45.130;6.038;2022-08-25T08:56:22;92641.91;;;27.06
40968;BMP280;57377;45.130;6.038;2022-08-25T10:08:21;92559.75;;;29.16
40968;BMP280;57377;45.130;6.038;2022-08-25T10:35:33;92522.66;;;29.11
40968;BMP280;57377;45.130;6.038;2022-08-25T10:41:00;92510.00;;;30.03
40968;BMP280;57377;45.130;6.038;2022-08-25T10:44:04;92498.69;;;30.15
40968;BMP280;57377;45.130;6.038;2022-08-25T10:47:05;92493.50;;;30.31
40968;BMP280;57377;45.130;6.038;2022-08-25T10:52:55;92491.28;;;30.49
40968;BMP280;57377;45.130;6.038;2022-08-25T10:55:34;92493.19;;;30.74
40968;BMP280;57377;45.130;6.038;2022-08-25T10:58:20;92487.69;;;30.81
40968;BMP280;57377;45.130;6.038;2022-08-25T11:06:54;92478.25;;;30.73
40968;BMP280;57377;45.130;6.038;2022-08-25T11:09:29;92464.78;;;31.15
40968;BMP280;57377;45.130;6.038;2022-08-25T11:12:01;92460.09;;;31.19
40968;BMP280;57377;45.130;6.038;2022-08-25T11:14:58;92463.59;;;31.35
40968;BMP280;57377;45.130;6.038;2022-08-25T11:20:32;92447.53;;;31.51
40968;BMP280;57377;45.130;6.038;2022-08-25T11:23:23;92440.31;;;31.48
40968;BMP280;57377;45.130;6.038;2022-08-25T11:25:56;92440.28;;;31.67
40968;BMP280;57377;45.130;6.038;2022-08-25T11:28:38;92433.66;;;31.72
40968;BMP280;57377;45.130;6.038;2022-08-25T11:31:11;92430.47;;;31.77
40968;BMP280;57377;45.130;6.038;2022-08-25T11:33:38;92429.69;;;31.76
40968;BMP280;57377;45.130;6.038;2022-08-25T11:36:11;92426.34;;;31.88
40968;BMP280;57377;45.130;6.038;2022-08-25T11:49:48;92423.44;;;32.14
40968;BMP280;57377;45.130;6.038;2022-08-25T11:57:30;92421.94;;;32.13
40968;BMP280;57377;45.130;6.038;2022-08-25T12:00:14;92410.31;;;32.16
40968;BMP280;57377;45.130;6.038;2022-08-25T12:02:55;92401.72;;;32.21
40968;BMP280;57377;45.130;6.038;2022-08-25T12:13:48;92408.88;;;31.80
40968;BMP280;57377;45.130;6.038;2022-08-25T12:22:37;92392.31;;;31.98
40968;BMP280;57377;45.130;6.038;2022-08-25T12:27:19;92397.75;;;31.78
40968;BMP280;57377;45.130;6.038;2022-08-25T12:29:54;92398.72;;;32.03
40968;BMP280;57377;45.130;6.038;2022-08-25T12:32:33;92398.38;;;32.01
40968;BMP280;57377;45.130;6.038;2022-08-25T12:35:11;92400.03;;;31.96
40968;BMP280;57377;45.130;6.038;2022-08-25T12:37:59;92387.09;;;32.06
40968;BMP280;57377;45.130;6.038;2022-08-25T12:43:03;92373.94;;;32.24
40968;BMP280;57377;45.130;6.038;2022-08-25T12:45:36;92376.75;;;32.21
40968;BMP280;57377;45.130;6.038;2022-08-25T12:56:15;92367.25;;;32.00
40968;BMP280;57377;45.130;6.038;2022-08-25T13:04:34;92373.47;;;31.82
40968;BMP280;57377;45.130;6.038;2022-08-25T13:16:06;92354.97;;;31.99
40968;BMP280;57377;45.130;6.038;2022-08-25T13:18:37;92360.81;;;31.63
40968;BMP280;57377;45.130;6.038;2022-08-25T13:21:14;92364.06;;;31.55
40968;BMP280;57377;45.130;6.038;2022-08-25T13:24:01;92361.91;;;31.65
40968;BMP280;57377;45.130;6.038;2022-08-25T13:26:31;92370.53;;;31.57
40968;BMP280;57377;45.130;6.038;2022-08-25T13:29:12;92362.16;;;31.71
40968;BMP280;57377;45.130;6.038;2022-08-25T13:31:51;92371.81;;;31.68
40968;BMP280;57377;45.130;6.038;2022-08-25T13:34:29;92358.59;;;31.77
40968;BMP280;57377;45.130;6.038;2022-08-25T13:37:06;92360.13;;;31.59
40968;BMP280;57377;45.130;6.038;2022-08-25T13:40:21;92367.03;;;31.60
40968;BMP280;57377;45.130;6.038;2022-08-25T13:43:08;92367.69;;;31.64
40968;BMP280;57377;45.130;6.038;2022-08-25T13:45:41;92355.25;;;31.54
40968;BMP280;57377;45.130;6.038;2022-08-25T13:48:08;92358.38;;;31.53
40968;BMP280;57377;45.130;6.038;2022-08-25T13:50:36;92361.47;;;31.51
40968;BMP280;57377;45.130;6.038;2022-08-25T13:53:12;92363.34;;;31.70
40968;BMP280;57377;45.130;6.038;2022-08-25T13:55:52;92357.44;;;31.43
40968;BMP280;57377;45.130;6.038;2022-08-25T14:00:50;92360.50;;;31.07
40968;BMP280;57377;45.130;6.038;2022-08-25T14:03:33;92352.88;;;31.40
40968;BMP280;57377;45.130;6.038;2022-08-25T14:11:29;92356.53;;;31.31
40968;BMP280;57377;45.130;6.038;2022-08-25T14:14:04;92358.97;;;31.25
40968;BMP280;57377;45.130;6.038;2022-08-25T14:16:46;92354.69;;;31.08
40968;BMP280;57377;45.130;6.038;2022-08-25T14:19:15;92353.19;;;31.07
40968;BMP280;57377;45.130;6.038;2022-08-25T14:21:44;92358.41;;;31.33
40968;BMP280;57377;45.130;6.038;2022-08-25T14:27:19;92357.38;;;31.08
40968;BMP280;57377;45.130;6.038;2022-08-25T14:33:54;92356.72;;;31.04
40968;BMP280;57377;45.130;6.038;2022-08-25T14:37:29;92350.75;;;31.13
40968;BMP280;57377;45.130;6.038;2022-08-25T14:39:49;92354.69;;;31.28
40968;BMP280;57377;45.130;6.038;2022-08-25T14:42:16;92356.72;;;31.04
40968;BMP280;57377;45.130;6.038;2022-08-25T14:44:41;92355.66;;;31.18
40968;BMP280;57377;45.130;6.038;2022-08-25T14:47:07;92366.03;;;30.81
40968;BMP280;57377;45.130;6.038;2022-08-25T14:49:37;92369.97;;;30.54
40968;BMP280;57377;45.130;6.038;2022-08-25T14:52:23;92355.38;;;30.55
40968;BMP280;57377;45.130;6.038;2022-08-25T14:54:50;92338.06;;;30.78
40968;BMP280;57377;45.130;6.038;2022-08-25T14:57:16;92332.88;;;30.87
40968;BMP280;57377;45.130;6.038;2022-08-25T14:59:42;92356.56;;;30.73
40968;BMP280;57377;45.130;6.038;2022-08-25T15:02:08;92336.53;;;30.77
40968;BMP280;57377;45.130;6.038;2022-08-25T15:04:37;92346.59;;;30.93
40968;BMP280;57377;45.130;6.038;2022-08-25T15:07:03;92343.13;;;30.92
40968;BMP280;57377;45.130;6.038;2022-08-25T15:09:48;92349.75;;;31.07
40968;BMP280;57377;45.130;6.038;2022-08-25T15:12:14;92344.25;;;30.75
40968;BMP280;57377;45.130;6.038;2022-08-25T15:14:39;92337.75;;;30.92
40968;BMP280;57377;45.130;6.038;2022-08-25T15:17:06;92347.19;;;30.62
40968;BMP280;57377;45.130;6.038;2022-08-25T15:19:32;92354.00;;;30.47
40968;BMP280;57377;45.130;6.038;2022-08-25T15:21:58;92342.88;;;30.26
40968;BMP280;57377;45.130;6.038;2022-08-25T15:24:24;92347.94;;;30.43
40968;BMP280;57377;45.130;6.038;2022-08-25T15:26:52;92344.50;;;30.62
40968;BMP280;57377;45.130;6.038;2022-08-25T15:29:18;92343.94;;;30.73
40968;BMP280;57377;45.130;6.038;2022-08-25T15:31:44;92343.81;;;30.58
40968;BMP280;57377;45.130;6.038;2022-08-25T15:34:10;92335.63;;;30.00
40968;BMP280;57377;45.130;6.038;2022-08-25T15:36:36;92339.53;;;30.41
40968;BMP280;57377;45.130;6.038;2022-08-25T15:39:02;92340.28;;;30.41
40968;BMP280;57377;45.130;6.038;2022-08-25T15:41:28;92347.47;;;30.48
40968;BMP280;57377;45.130;6.038;2022-08-25T15:43:55;92344.75;;;30.29
40968;BMP280;57377;45.130;6.038;2022-08-25T16:37:35;92334.44;;;28.71
40968;BMP280;57377;45.130;6.038;2022-08-25T16:43:52;92330.88;;;29.36
40968;BMP280;57377;45.130;6.038;2022-08-25T16:46:20;92328.72;;;29.28
40968;BMP280;57377;45.130;6.038;2022-08-25T16:48:52;92319.41;;;29.36
40968;BMP280;57377;45.130;6.038;2022-08-25T16:54:56;92313.81;;;29.27
40968;BMP280;57377;45.130;6.038;2022-08-25T16:57:41;92319.22;;;29.23
40968;BMP280;57377;45.130;6.038;2022-08-25T17:00:15;92317.91;;;29.05
40968;BMP280;57377;45.130;6.038;2022-08-25T17:02:46;92316.84;;;29.29
40968;BMP280;57377;45.130;6.038;2022-08-25T17:05:41;92312.44;;;29.15
40968;BMP280;57377;45.130;6.038;2022-08-25T17:08:07;92322.28;;;29.22
40968;BMP280;57377;45.130;6.038;2022-08-25T17:10:51;92325.41;;;29.20
40968;BMP280;57377;45.130;6.038;2022-08-25T17:13:16;92322.72;;;29.20
40968;BMP280;57377;45.130;6.038;2022-08-25T17:15:44;92327.00;;;29.14
40968;BMP280;57377;45.130;6.038;2022-08-25T17:18:11;92331.16;;;29.19
40968;BMP280;57377;45.130;6.038;2022-08-25T17:20:38;92335.47;;;29.13
40968;BMP280;57377;45.130;6.038;2022-08-25T17:25:40;92328.69;;;29.02
40968;BMP280;57377;45.130;6.038;2022-08-25T17:41:06;92322.56;;;28.38
40968;BMP280;57377;45.130;6.038;2022-08-25T17:43:39;92321.47;;;28.36
40968;BMP280;57377;45.130;6.038;2022-08-25T17:46:09;92327.69;;;28.26
40968;BMP280;57377;45.130;6.038;2022-08-25T17:48:36;92331.91;;;28.24
40968;BMP280;57377;45.130;6.038;2022-08-25T17:51:02;92335.19;;;28.02
40968;BMP280;57377;45.130;6.038;2022-08-25T17:53:31;92336.06;;;27.88
40968;BMP280;57377;45.130;6.038;2022-08-25T17:56:00;92346.09;;;27.74
40968;BMP280;57377;45.130;6.038;2022-08-25T17:58:26;92346.28;;;27.53
40968;BMP280;57377;45.130;6.038;2022-08-25T18:01:05;92352.31;;;27.61
40968;BMP280;57377;45.130;6.038;2022-08-25T18:03:37;92352.47;;;27.43
40968;BMP280;57377;45.130;6.038;2022-08-25T18:06:03;92358.97;;;27.42
40968;BMP280;57377;45.130;6.038;2022-08-25T18:08:28;92360.88;;;27.39
40968;BMP280;57377;45.130;6.038;2022-08-25T18:10:53;92369.47;;;27.06
40968;BMP280;57377;45.130;6.038;2022-08-25T18:13:19;92364.19;;;26.89
40968;BMP280;57377;45.130;6.038;2022-08-25T18:15:45;92377.94;;;26.94
40968;BMP280;57377;45.130;6.038;2022-08-25T18:18:11;92378.69;;;26.91
40968;BMP280;57377;45.130;6.038;2022-08-25T18:20:36;92379.09;;;26.86
40968;BMP280;57377;45.130;6.038;2022-08-25T18:23:02;92382.16;;;26.74
40968;BMP280;57377;45.130;6.038;2022-08-25T18:25:28;92392.81;;;26.92
40968;BMP280;57377;45.130;6.038;2022-08-25T18:27:55;92388.63;;;26.87
40968;BMP280;57377;45.130;6.038;2022-08-25T18:30:21;92390.50;;;26.97
40968;BMP280;57377;45.130;6.038;2022-08-25T18:32:47;92396.22;;;26.99
40968;BMP280;57377;45.130;6.038;2022-08-25T18:35:17;92396.25;;;26.89
40968;BMP280;57377;45.130;6.038;2022-08-25T18:37:42;92400.84;;;26.92
40968;BMP280;57377;45.130;6.038;2022-08-25T18:40:27;92402.38;;;26.89
40968;BMP280;57377;45.130;6.038;2022-08-25T18:42:56;92404.66;;;26.87
40968;BMP280;57377;45.130;6.038;2022-08-25T18:45:30;92412.06;;;26.32
40968;BMP280;57377;45.130;6.038;2022-08-25T18:47:57;92416.22;;;26.36
40968;BMP280;57377;45.130;6.038;2022-08-25T18:50:24;92418.53;;;26.13
40968;BMP280;57377;45.130;6.038;2022-08-25T18:52:50;92422.34;;;26.26
40968;BMP280;57377;45.130;6.038;2022-08-25T18:55:16;92420.38;;;26.47
40968;BMP280;57377;45.130;6.038;2022-08-25T18:57:58;92426.13;;;26.39
40968;BMP280;57377;45.130;6.038;2022-08-25T19:03:33;92432.22;;;26.36
40968;BMP280;57377;45.130;6.038;2022-08-25T19:05:58;92434.50;;;26.44
40968;BMP280;57377;45.130;6.038;2022-08-25T19:08:25;92435.28;;;26.31
40968;BMP280;57377;45.130;6.038;2022-08-25T19:10:51;92437.97;;;26.24
40968;BMP280;57377;45.130;6.038;2022-08-25T19:13:18;92447.50;;;26.18
40968;BMP280;57377;45.130;6.038;2022-08-25T19:15:45;92453.94;;;26.14
40968;BMP280;57377;45.130;6.038;2022-08-25T19:18:11;92449.75;;;26.09
40968;BMP280;57377;45.130;6.038;2022-08-25T19:20:43;92461.22;;;26.10
40968;BMP280;57377;45.130;6.038;2022-08-25T19:25:36;92466.53;;;25.79
40968;BMP280;57377;45.130;6.038;2022-08-25T19:28:04;92465.00;;;25.81
40968;BMP280;57377;45.130;6.038;2022-08-25T19:30:30;92468.06;;;25.94
40968;BMP280;57377;45.130;6.038;2022-08-25T19:33:13;92466.13;;;25.70
40968;BMP280;57377;45.130;6.038;2022-08-25T19:38:36;92467.28;;;25.69
40968;BMP280;57377;45.130;6.038;2022-08-25T19:41:02;92462.72;;;25.83
40968;BMP280;57377;45.130;6.038;2022-08-25T19:43:29;92466.53;;;25.72
40968;BMP280;57377;45.130;6.038;2022-08-25T19:45:55;92464.94;;;25.50
40968;BMP280;57377;45.130;6.038;2022-08-25T19:48:20;92458.84;;;25.43
40968;BMP280;57377;45.130;6.038;2022-08-25T19:50:46;92466.09;;;25.56
40968;BMP280;57377;45.130;6.038;2022-08-25T19:53:11;92468.78;;;25.56
40968;BMP280;57377;45.130;6.038;2022-08-25T19:55:36;92466.50;;;25.55
40968;BMP280;57377;45.130;6.038;2022-08-25T19:58:02;92468.63;;;25.18
40968;BMP280;57377;45.130;6.038;2022-08-25T20:00:30;92479.97;;;24.91
40968;BMP280;57377;45.130;6.038;2022-08-25T20:02:57;92482.28;;;25.03
40968;BMP280;57377;45.130;6.038;2022-08-25T20:05:25;92480.06;;;25.15
40968;BMP280;57377;45.130;6.038;2022-08-25T20:07:52;92492.50;;;24.87
40968;BMP280;57377;45.130;6.038;2022-08-25T20:10:18;92495.22;;;25.01
40968;BMP280;57377;45.130;6.038;2022-08-25T20:12:44;92496.75;;;25.02
40968;BMP280;57377;45.130;6.038;2022-08-25T20:15:10;92498.44;;;24.64
40968;BMP280;57377;45.130;6.038;2022-08-25T20:17:36;92502.00;;;24.88
40968;BMP280;57377;45.130;6.038;2022-08-25T20:20:05;92501.31;;;25.09
40968;BMP280;57377;45.130;6.038;2022-08-25T20:22:33;92512.75;;;25.16
40968;BMP280;57377;45.130;6.038;2022-08-25T20:25:19;92499.81;;;25.11
40968;BMP280;57377;45.130;6.038;2022-08-25T20:27:50;92508.13;;;24.92
40968;BMP280;57377;45.130;6.038;2022-08-25T20:30:35;92500.59;;;25.18
40968;BMP280;57377;45.130;6.038;2022-08-25T20:33:01;92507.47;;;25.23
40968;BMP280;57377;45.130;6.038;2022-08-25T20:35:27;92513.22;;;25.32
40968;BMP280;57377;45.130;6.038;2022-08-25T20:37:54;92517.34;;;25.12
40968;BMP280;57377;45.130;6.038;2022-08-25T20:40:21;92523.41;;;25.09
40968;BMP280;57377;45.130;6.038;2022-08-25T20:42:47;92527.22;;;25.18
40968;BMP280;57377;45.130;6.038;2022-08-25T20:45:14;92520.44;;;25.31
40968;BMP280;57377;45.130;6.038;2022-08-25T20:47:40;92519.69;;;25.31
40968;BMP280;57377;45.130;6.038;2022-08-25T20:50:07;92516.25;;;25.34
40968;BMP280;57377;45.130;6.038;2022-08-25T20:52:33;92531.06;;;25.21
40968;BMP280;57377;45.130;6.038;2022-08-25T20:54:58;92529.84;;;25.08
40968;BMP280;57377;45.130;6.038;2022-08-25T20:57:24;92532.56;;;25.12
40968;BMP280;57377;45.130;6.038;2022-08-25T20:59:50;92533.34;;;25.19
40968;BMP280;57377;45.130;6.038;2022-08-25T21:02:16;92535.59;;;25.17
40968;BMP280;57377;45.130;6.038;2022-08-25T21:04:42;92531.00;;;25.07
40968;BMP280;57377;45.130;6.038;2022-08-25T21:07:08;92533.88;;;24.81
40968;BMP280;57377;45.130;6.038;2022-08-25T21:09:34;92541.63;;;25.00
40968;BMP280;57377;45.130;6.038;2022-08-25T21:12:00;92534.34;;;24.94
40968;BMP280;57377;45.130;6.038;2022-08-25T21:14:26;92539.19;;;24.81